Date,TemperatureHighF,TemperatureAvgF,TemperatureLowF,DewpointHighF,DewpointAvgF,DewpointLowF,HumidityHigh,HumidityAvg,HumidityLow,PressureMaxIn,PressureMinIn,WindSpeedMaxMPH,WindSpeedAvgMPH,GustSpeedMaxMPH,PrecipitationSumIn
2013-1-1,44.2,41.6,39.0,44.2,38.6,32.0,100,89,73,30.05,29.92,4,0,5,0.39
2013-1-2,46.9,41.8,37.9,44.0,39.8,35.6,100,93,82,30.08,29.88,5,1,7,0.06
2013-1-3,45.6,37.2,26.9,40.8,35.0,24.9,100,92,77,30.21,30.03,6,1,6,0.02
2013-1-4,44.4,32.0,24.9,33.2,26.5,22.2,97,81,58,30.29,30.17,10,1,10,0.02
2013-1-5,49.6,36.1,24.9,35.3,28.4,-7.3,87,74,13,30.30,30.15,6,0,6,0.00
2013-1-6,51.8,40.2,32.1,44.5,35.8,29.2,93,84,73,30.15,30.00,6,1,6,0.02
2013-1-7,51.6,36.6,25.3,37.8,30.3,23.0,91,79,57,30.32,30.14,7,1,7,0.00
2013-1-8,52.8,34.8,21.7,44.8,31.7,20.5,97,89,71,30.36,30.26,4,0,22,0.00
2013-1-9,52.7,47.5,40.6,51.7,46.6,39.3,100,97,94,30.41,30.31,1,0,3,0.00
2013-1-10,59.1,50.0,39.9,56.8,48.6,-2.5,100,96,89,30.44,30.30,5,0,5,0.04
2013-1-11,52.8,49.9,47.4,52.8,49.8,47.1,100,100,97,30.29,30.11,2,0,6,0.49
2013-1-12,73.7,58.4,0.0,69.6,56.9,-39.1,100,95,13,30.15,30.07,6,0,6,0.02
2013-1-13,69.4,59.0,47.4,62.8,56.0,-1.3,100,93,79,30.10,30.03,10,3,18,0.00
2013-1-14,62.4,57.4,46.2,62.4,57.4,46.2,100,100,99,30.14,30.03,7,0,7,0.80
2013-1-15,52.8,48.8,44.6,52.8,48.8,44.6,100,100,100,30.12,30.00,6,0,6,1.02
2013-1-16,58.6,50.5,44.4,58.6,50.5,44.4,100,100,99,30.00,29.92,2,0,2,0.33
2013-1-17,52.3,44.1,33.6,52.3,44.1,33.1,100,100,98,30.15,29.77,11,1,46,1.86
2013-1-18,47.1,34.3,26.2,35.0,29.8,25.2,98,85,56,30.40,30.15,8,1,9,0.00
2013-1-19,53.9,34.6,21.9,41.3,29.9,21.2,100,85,56,30.38,30.11,6,0,22,0.00
2013-1-20,57.7,39.7,26.4,45.0,33.8,25.7,98,81,55,30.10,30.00,6,1,8,0.00
2013-1-21,55.2,36.5,25.7,41.4,29.5,20.8,99,78,52,30.05,29.92,7,0,12,0.00
2013-1-22,34.3,26.8,20.4,20.7,14.1,9.3,71,59,44,30.15,29.96,11,1,11,0.00
2013-1-23,44.4,29.8,20.4,29.7,19.5,9.7,88,66,54,30.23,30.00,6,0,6,0.00
2013-1-24,39.0,31.7,21.9,32.5,21.7,2.6,95,68,25,30.34,29.92,17,2,17,0.00
2013-1-25,37.0,26.9,19.2,36.5,20.7,9.7,98,78,61,30.35,29.98,5,0,6,0.02
2013-1-26,47.3,36.7,26.9,37.0,32.4,24.1,99,85,63,30.25,30.02,8,2,8,0.00
2013-1-27,44.4,34.2,23.1,36.3,29.6,4.8,97,84,25,30.41,30.25,22,0,22,0.00
2013-1-28,64.2,46.8,34.3,55.8,42.2,4.6,95,84,25,30.34,30.17,17,1,17,0.00
2013-1-29,72.6,52.1,33.8,62.7,49.2,33.5,100,91,70,30.19,29.99,7,1,7,0.06
2013-1-30,62.0,57.1,45.1,62.0,56.7,42.9,100,99,92,30.00,29.48,20,3,20,2.19
2013-1-31,46.0,36.6,27.1,42.9,29.6,23.9,94,77,55,29.96,29.55,12,2,12,0.00
2013-2-1,40.2,29.3,19.9,33.1,20.6,12.8,87,70,58,30.25,29.86,11,1,11,0.00
2013-2-2,46.5,31.4,18.3,33.9,24.4,13.3,92,76,50,30.25,29.95,8,0,8,0.22
2013-2-3,52.5,36.9,28.2,39.1,29.8,22.8,96,77,53,29.97,29.82,8,1,11,0.00
2013-2-4,54.5,36.8,24.9,37.8,27.9,4.0,86,72,25,30.06,29.92,7,0,7,0.00
2013-2-5,59.3,41.0,27.6,46.5,33.5,25.1,93,76,49,29.96,29.86,6,0,7,0.00
2013-2-6,58.4,41.1,28.0,42.3,34.0,26.5,97,78,49,30.16,29.96,8,0,8,0.00
2013-2-7,46.0,38.8,31.2,41.4,35.9,28.1,99,89,70,30.19,29.95,4,0,4,0.35
2013-2-8,57.5,43.1,33.2,52.4,40.0,29.2,100,89,67,30.08,29.87,9,1,12,0.22
2013-2-9,56.3,38.8,28.2,34.6,29.1,25.1,88,71,37,30.26,30.05,9,1,10,0.22
2013-2-10,53.7,40.8,29.3,41.4,34.4,26.2,98,79,56,30.32,30.09,7,0,9,0.37
2013-2-11,62.4,51.8,41.5,60.0,49.3,38.6,100,92,67,30.10,29.95,6,0,8,0.08
2013-2-12,55.5,45.6,39.0,39.6,36.3,30.4,95,71,53,30.08,29.89,6,1,6,0.08
2013-2-13,54.1,42.0,32.7,49.5,39.9,30.6,99,93,70,29.90,29.61,7,1,11,0.06
2013-2-14,53.4,38.1,27.5,41.3,33.1,21.8,96,83,39,30.00,29.85,8,1,8,0.00
2013-2-15,62.4,39.4,24.0,45.1,33.3,23.3,99,81,50,30.05,29.90,7,1,9,0.00
2013-2-16,40.6,32.1,22.2,32.4,25.7,15.5,87,77,60,29.94,29.80,12,2,12,0.00
2013-2-17,38.4,27.3,19.2,20.4,15.4,11.0,77,61,44,30.16,29.93,11,2,11,0.00
2013-2-18,54.1,34.1,17.2,37.0,24.7,13.4,90,70,51,30.26,30.10,8,1,8,0.00
2013-2-19,58.6,43.5,34.7,47.6,33.7,21.5,94,70,51,30.10,29.82,6,1,11,0.12
2013-2-20,50.1,36.6,27.6,26.9,20.3,15.6,64,52,38,30.07,29.98,12,2,12,0.00
2013-2-21,60.4,41.1,25.3,36.1,26.0,15.7,88,56,39,30.16,30.01,5,0,6,0.22
2013-2-22,40.8,38.0,35.4,39.3,36.5,34.1,99,95,88,30.19,30.02,3,0,4,0.45
2013-2-23,55.4,45.4,37.0,52.3,44.4,36.8,100,96,88,30.04,29.79,2,0,2,0.24
2013-2-24,58.1,43.6,33.6,43.5,36.8,28.4,100,79,51,30.00,29.83,7,1,9,0.22
2013-2-25,47.8,38.2,30.9,35.8,31.4,27.5,92,77,62,30.09,29.95,6,0,6,0.02
2013-2-26,39.3,35.5,32.3,38.5,34.8,31.2,100,97,91,29.97,29.55,5,0,6,1.78
2013-2-27,57.0,41.5,28.7,45.8,36.7,28.7,100,84,62,29.76,29.61,8,1,8,0.00
2013-2-28,47.3,37.0,31.6,36.9,30.7,26.5,95,79,62,29.86,29.69,11,1,12,0.22
2013-3-1,45.3,36.4,31.2,36.3,30.9,27.2,89,80,69,29.88,29.82,9,1,9,0.00
2013-3-2,47.1,35.0,27.6,35.6,29.6,22.8,94,81,59,29.88,29.79,12,1,12,0.00
2013-3-3,37.2,28.3,21.9,25.4,20.8,17.2,88,74,61,29.94,29.85,16,2,16,0.00
2013-3-4,52.3,35.8,20.8,32.7,24.8,16.1,83,66,44,30.06,29.92,8,1,8,0.22
2013-3-5,54.6,42.2,32.3,49.0,38.6,27.1,99,87,77,30.01,29.61,5,0,5,0.49
2013-3-6,40.8,32.6,27.3,34.0,27.4,22.5,89,81,66,30.08,29.64,12,4,14,0.00
2013-3-7,47.1,34.2,28.0,36.7,29.0,25.1,91,82,66,30.20,30.06,9,2,11,0.00
2013-3-8,53.7,37.6,25.3,33.5,28.1,23.0,93,71,42,30.24,30.16,8,1,9,0.00
2013-3-9,61.3,42.2,23.1,42.4,32.5,21.1,93,71,48,30.27,30.16,8,0,8,0.22
2013-3-10,64.7,46.9,31.2,46.5,37.5,23.7,91,72,21,30.23,30.11,22,1,22,0.00
2013-3-11,57.0,49.4,38.4,53.6,47.6,34.3,100,93,84,30.13,29.81,11,1,11,0.76
2013-3-12,53.9,47.0,38.3,51.2,42.8,33.4,100,86,64,29.99,29.75,9,2,11,0.28
2013-3-13,52.3,37.6,26.2,38.0,29.2,21.2,98,74,48,30.09,29.97,10,1,10,0.00
2013-3-14,49.1,34.4,24.6,29.8,22.3,17.2,74,62,45,30.22,30.09,10,1,10,0.00
2013-3-15,69.6,46.7,25.7,48.4,35.0,20.7,86,66,42,30.13,29.90,10,1,10,0.22
2013-3-16,77.1,62.0,47.8,56.0,49.3,42.3,83,65,46,29.91,29.75,13,2,18,0.00
2013-3-17,77.1,58.4,45.3,59.1,49.7,42.7,92,75,51,30.01,29.85,10,1,10,0.00
2013-3-18,48.2,41.6,38.4,44.2,40.2,37.6,99,95,86,30.03,29.82,6,0,6,0.53
2013-3-19,59.0,46.3,36.6,42.9,36.5,23.6,100,72,42,30.04,29.83,7,1,10,0.00
2013-3-20,55.4,42.3,31.6,32.9,25.7,20.7,84,53,35,30.05,29.78,10,1,11,0.00
2013-3-21,41.3,30.8,21.5,29.5,21.5,16.0,90,69,50,29.89,29.74,14,1,14,0.02
2013-3-22,55.4,37.4,22.8,36.3,24.9,15.2,76,61,46,29.97,29.89,6,0,7,0.22
2013-3-23,61.1,45.1,-14.9,49.1,38.1,-19.5,93,77,64,29.97,29.84,7,0,7,0.22
2013-3-24,46.2,42.2,38.3,43.8,40.9,38.0,99,95,90,29.90,29.52,8,0,8,0.76
2013-3-25,45.1,37.0,31.2,38.8,29.9,3.9,100,77,21,29.84,29.51,9,2,15,0.02
2013-3-26,42.9,33.7,27.3,33.1,27.0,23.0,88,77,63,30.12,29.84,10,2,10,0.22
2013-3-27,47.8,35.8,25.8,34.6,28.1,20.8,90,74,58,30.19,30.10,22,2,22,0.00
2013-3-28,53.4,38.2,24.9,35.8,27.6,21.2,88,67,46,30.23,30.13,11,1,12,0.22
2013-3-29,64.0,40.6,22.6,41.6,32.0,20.1,92,74,42,30.27,30.16,10,1,10,0.22
2013-3-30,59.0,44.0,40.1,52.0,41.7,38.1,98,92,73,30.18,30.13,3,0,5,0.08
2013-3-31,71.9,60.6,51.4,59.4,54.4,49.9,98,81,61,29.87,29.82,10,1,13,0.10
2013-4-1,67.2,53.5,38.8,52.0,46.1,38.0,100,78,52,29.96,29.84,8,1,8,0.02
2013-4-2,60.4,48.0,36.6,40.0,34.6,28.7,79,61,43,30.12,29.95,7,1,9,0.00
2013-4-3,63.5,49.4,38.4,41.6,32.5,24.1,69,53,42,30.20,30.09,8,1,8,0.08
2013-4-4,45.1,39.1,36.3,36.7,35.2,33.1,97,87,63,30.19,29.92,2,0,3,0.83
2013-4-5,58.8,46.7,37.2,49.5,40.8,18.5,100,82,25,30.04,29.86,11,1,61,0.00
2013-4-6,68.5,49.1,30.5,49.8,40.0,29.5,99,74,49,30.17,30.04,7,0,7,0.00
2013-4-7,71.4,53.9,34.8,54.4,44.9,33.0,95,74,55,30.17,30.06,13,1,13,0.08
2013-4-8,76.8,58.5,41.0,61.4,50.8,39.7,98,77,57,30.14,30.05,11,1,11,0.00
2013-4-9,83.1,63.6,44.4,68.1,56.1,43.9,100,79,57,30.19,30.09,11,1,16,0.00
2013-4-10,84.0,65.7,47.3,68.0,57.7,9.8,100,78,21,30.12,29.96,11,1,11,0.00
2013-4-11,78.6,66.2,51.9,65.2,60.1,50.8,98,82,59,29.98,29.71,15,2,17,0.19
2013-4-12,77.0,64.0,49.8,65.2,56.8,41.2,100,79,55,29.86,29.64,12,2,12,0.83
2013-4-13,72.1,56.9,43.5,53.4,44.3,38.7,84,65,41,30.03,29.84,8,1,9,0.00
2013-4-14,73.9,55.1,37.5,55.9,46.5,35.9,96,75,50,30.08,29.97,8,1,10,0.00
2013-4-15,68.0,58.3,51.9,62.3,55.8,49.8,99,92,79,30.18,29.95,6,0,6,0.25
2013-4-16,78.6,65.0,55.0,67.9,60.0,54.5,99,85,66,30.25,30.17,10,1,10,0.00
2013-4-17,78.8,62.7,52.3,68.7,60.2,52.0,100,92,69,30.25,30.13,6,0,8,0.57
2013-4-18,75.7,64.4,52.8,67.3,60.6,52.8,100,89,67,30.13,29.95,9,1,9,0.00
2013-4-19,68.0,60.7,43.7,66.5,59.5,40.1,100,96,87,29.95,29.73,15,2,15,0.69
2013-4-20,58.8,47.2,36.3,43.2,37.2,30.1,87,69,50,30.23,29.92,11,2,13,0.00
2013-4-21,63.3,47.3,31.6,46.9,38.9,30.6,98,75,52,30.36,30.23,7,0,7,0.02
2013-4-22,63.5,50.2,39.5,48.9,42.1,36.9,93,75,55,30.34,30.16,7,1,7,0.00
2013-4-23,71.4,52.6,32.3,56.3,44.4,31.0,97,76,54,30.23,30.07,8,1,8,0.00
2013-4-24,74.6,58.2,41.3,61.8,52.6,40.7,100,83,63,30.11,30.00,9,1,11,0.00
2013-4-25,69.0,54.7,40.8,50.7,42.3,34.4,91,66,37,30.27,30.08,6,1,8,0.00
2013-4-26,69.6,54.8,38.4,50.9,42.1,33.2,83,64,47,30.38,30.26,8,0,8,0.00
2013-4-27,57.5,52.8,50.7,54.0,49.9,45.4,100,90,76,30.33,30.21,2,0,3,0.80
2013-4-28,54.1,50.7,47.4,54.1,50.6,47.4,100,100,99,30.22,30.01,3,0,4,2.04
2013-4-29,73.7,59.0,50.9,66.5,57.0,50.9,100,94,75,30.04,29.93,6,0,6,0.14
2013-4-30,76.8,60.3,47.1,67.5,56.6,47.1,100,89,64,30.16,29.98,5,0,6,1.69
2013-5-1,66.9,59.7,55.0,59.2,56.0,53.8,97,88,75,30.25,30.15,7,0,7,0.00
2013-5-2,64.2,56.8,53.7,60.6,55.6,53.3,100,96,86,30.26,30.20,6,0,6,0.04
2013-5-3,62.6,55.9,51.8,57.8,54.0,51.8,100,93,81,30.20,30.05,7,1,10,0.06
2013-5-4,54.6,49.8,46.9,52.5,48.2,43.7,100,94,88,30.07,29.95,8,1,8,0.63
2013-5-5,51.6,48.6,46.5,51.6,48.6,46.5,100,100,99,29.97,29.81,11,1,11,3.02
2013-5-6,65.4,55.8,43.5,58.4,51.5,42.4,100,87,66,29.90,29.78,12,1,12,0.02
2013-5-7,71.4,53.8,40.4,57.2,49.7,40.1,100,88,58,29.95,29.86,8,0,8,0.08
2013-5-8,73.0,58.2,44.9,62.8,54.9,44.9,100,90,70,30.05,29.92,0,0,0,0.02
2013-5-9,79.3,62.0,46.9,65.9,56.9,46.9,100,85,62,30.11,30.02,8,0,8,0.00
2013-5-10,82.2,65.1,49.6,69.7,59.5,49.6,100,84,61,30.11,29.97,10,0,10,0.00
2013-5-11,79.8,66.3,53.9,68.7,61.1,52.8,99,85,66,29.98,29.83,6,0,6,0.22
2013-5-12,68.5,56.6,45.1,56.7,48.6,15.2,100,77,25,30.05,29.89,13,1,13,0.02
2013-5-13,65.3,51.6,37.2,47.2,39.8,33.5,91,66,47,30.17,30.05,7,0,8,0.00
2013-5-14,72.6,55.1,34.8,54.9,46.3,33.2,97,75,52,30.21,30.07,8,0,8,0.00
2013-5-15,86.9,67.8,50.0,69.5,60.0,48.6,99,78,54,30.11,29.98,5,0,6,0.00
2013-5-16,82.9,66.6,51.6,68.3,59.8,51.3,100,81,58,30.08,29.99,5,0,6,0.00
2013-5-17,84.7,67.5,-21.0,70.5,61.1,-26.7,100,82,60,30.12,30.04,6,0,6,0.00
2013-5-18,73.9,64.4,58.8,70.1,62.8,57.0,100,95,84,30.13,30.06,3,0,3,1.14
2013-5-19,79.3,67.7,60.6,73.7,65.5,60.3,100,93,80,30.12,30.02,5,0,6,0.08
2013-5-20,83.1,69.1,59.1,74.6,66.1,59.1,100,91,73,30.13,30.04,8,0,8,0.00
2013-5-21,76.8,64.8,57.7,71.6,62.8,34.4,100,94,25,30.08,29.97,0,0,0,0.00
2013-5-22,83.8,69.2,58.2,74.8,66.1,58.2,100,91,71,30.04,29.90,10,0,11,0.49
2013-5-23,80.0,68.4,60.6,72.0,65.0,57.7,100,90,69,29.97,29.87,1,0,6,0.04
2013-5-24,68.7,60.2,-13.2,59.7,51.9,-23.7,94,75,53,30.21,29.92,14,1,15,0.20
2013-5-25,76.1,59.1,43.1,56.7,47.1,22.4,92,67,40,30.30,30.16,8,0,8,0.00
2013-5-26,75.0,61.2,50.7,60.2,52.6,44.9,91,75,55,30.26,30.16,6,0,8,0.00
2013-5-27,80.4,64.4,47.8,66.9,57.4,47.0,99,80,62,30.26,30.15,7,0,9,0.00
2013-5-28,83.1,68.4,53.7,69.8,62.0,53.2,100,81,62,30.21,30.16,8,0,9,0.00
2013-5-29,84.9,68.8,54.8,72.5,62.6,21.0,100,83,25,30.24,30.17,7,0,9,0.00
2013-5-30,84.3,68.3,54.8,72.3,62.8,54.8,100,84,63,30.28,30.18,6,0,7,0.00
2013-5-31,83.8,69.8,57.3,70.9,63.9,57.2,100,83,63,30.23,30.13,8,0,10,0.00
2013-6-1,83.4,72.1,61.3,72.2,66.1,60.2,99,83,67,30.15,30.05,9,0,10,0.00
2013-6-2,79.3,67.7,62.4,76.4,66.8,62.4,100,97,86,30.08,29.94,6,0,6,1.22
2013-6-3,82.2,69.9,62.2,74.3,66.7,62.2,100,90,72,30.00,29.89,6,0,6,0.00
2013-6-4,83.4,70.1,57.0,72.3,65.5,57.0,100,86,67,30.10,29.98,9,0,9,0.00
2013-6-5,81.1,70.2,64.0,73.4,67.3,62.4,100,91,76,30.12,29.99,22,0,22,0.86
2013-6-6,79.3,70.6,63.6,75.6,68.3,63.6,100,93,80,30.01,29.82,0,0,0,0.12
2013-6-7,81.6,69.4,63.1,75.5,67.6,62.8,100,94,76,29.87,29.73,0,0,22,0.41
2013-6-8,85.8,70.7,60.4,75.1,67.2,60.4,100,90,67,30.12,29.87,4,0,4,0.43
2013-6-9,86.5,69.6,61.3,77.4,67.8,61.3,100,95,72,30.17,30.07,4,0,6,0.96
2013-6-10,78.9,70.5,64.9,73.7,68.3,64.1,100,93,77,30.07,29.93,4,0,5,0.89
2013-6-11,84.7,72.5,61.3,74.2,67.4,61.3,100,85,62,30.05,29.97,8,0,8,0.00
2013-6-12,93.3,74.9,61.1,82.1,70.2,31.7,100,87,21,30.08,29.98,9,0,9,0.00
2013-6-13,92.3,75.1,63.6,77.3,69.7,63.6,100,85,55,29.98,29.78,6,0,6,0.00
2013-6-14,81.1,69.3,58.8,66.4,61.4,55.8,95,77,57,30.08,29.87,9,0,9,0.00
2013-6-15,84.9,67.8,51.9,69.6,61.4,33.5,100,82,41,30.16,30.08,5,0,5,0.00
2013-6-16,85.6,71.1,56.4,73.0,65.7,56.1,100,84,64,30.16,30.06,4,0,6,0.00
2013-6-17,86.1,73.4,66.0,77.2,70.3,65.7,100,91,73,30.08,29.98,2,0,6,0.27
2013-6-18,85.1,71.4,62.6,76.5,68.7,61.2,100,92,70,30.00,29.85,5,0,5,0.02
2013-6-19,83.1,71.2,62.2,72.1,66.2,61.5,99,85,67,30.14,29.95,4,0,6,0.00
2013-6-20,82.0,69.5,59.3,72.8,65.7,59.3,100,89,70,30.25,30.13,8,0,8,0.00
2013-6-21,82.7,70.8,60.4,72.8,65.5,60.4,100,85,65,30.28,30.20,6,0,8,0.00
2013-6-22,83.1,69.8,57.0,70.6,63.4,57.0,100,82,59,30.26,30.14,6,0,6,0.00
2013-6-23,85.4,69.9,57.7,75.6,66.9,57.6,100,91,69,30.24,30.16,4,0,4,0.61
2013-6-24,85.8,73.3,62.4,77.9,70.1,62.4,100,90,73,30.25,30.13,5,0,6,0.18
2013-6-25,86.7,72.2,62.4,76.0,69.1,62.4,100,91,68,30.18,30.07,6,0,6,0.00
2013-6-26,85.6,72.2,63.3,77.8,69.9,63.3,100,93,74,30.09,29.97,4,0,4,0.06
2013-6-27,88.3,74.6,65.1,79.8,71.6,65.1,100,91,72,30.00,29.82,6,0,6,0.16
2013-6-28,91.9,75.2,64.7,78.5,70.7,64.7,100,88,60,29.88,29.69,4,0,4,0.22
2013-6-29,80.7,68.1,60.8,74.3,66.0,60.8,100,94,70,29.77,29.70,0,0,0,0.00
2013-6-30,87.0,71.9,59.9,74.7,67.1,59.9,100,86,64,29.86,29.75,6,0,6,0.10
2013-7-1,83.6,72.0,64.0,75.3,69.0,63.9,100,91,72,30.00,29.85,8,0,10,0.81
2013-7-2,84.0,72.3,63.5,76.2,69.7,63.5,100,92,71,30.16,29.98,6,0,8,0.72
2013-7-3,78.9,69.4,62.4,76.4,68.9,62.4,100,98,91,30.24,30.13,7,0,7,1.73
2013-7-4,75.0,67.2,62.4,74.4,67.1,62.4,100,100,97,30.24,30.16,3,0,4,1.88
2013-7-5,84.0,71.6,65.4,76.4,69.6,65.4,100,94,77,30.26,30.18,5,0,12,0.30
2013-7-6,84.0,73.3,66.5,76.6,71.1,66.5,100,93,75,30.23,30.14,6,0,6,1.19
2013-7-7,84.7,77.9,69.4,77.6,73.7,69.0,100,87,76,30.19,30.12,5,0,5,0.24
2013-7-8,86.5,75.1,67.6,78.4,71.9,67.5,100,91,71,30.23,30.14,6,0,6,0.26
2013-7-9,89.4,75.7,66.3,78.9,72.5,66.3,100,91,66,30.21,30.10,5,0,8,0.02
2013-7-10,89.4,74.7,66.7,80.7,72.0,66.7,100,92,73,30.18,30.00,5,0,5,0.29
2013-7-11,82.7,72.6,66.3,77.9,71.2,66.3,100,96,84,30.02,29.92,3,0,3,0.02
2013-7-12,86.5,71.9,63.8,77.8,69.1,62.6,100,92,73,30.04,29.93,6,0,6,0.00
2013-7-13,76.1,68.6,62.4,73.2,67.2,62.3,100,96,85,30.14,30.03,5,0,6,0.06
2013-7-14,76.2,70.1,64.5,74.6,69.6,64.5,100,98,92,30.31,30.13,6,0,6,1.16
2013-7-15,83.4,73.1,64.7,77.3,70.2,64.7,100,91,77,30.35,30.28,6,0,6,0.00
2013-7-16,90.5,75.7,64.5,80.1,71.9,64.5,100,89,69,30.36,30.27,7,0,7,0.00
2013-7-17,90.1,74.6,67.1,81.1,71.9,48.5,100,92,25,30.32,30.20,0,0,1,0.14
2013-7-18,89.4,76.2,66.2,80.8,72.6,66.2,100,89,71,30.25,30.12,6,0,6,0.00
2013-7-19,88.5,76.1,66.7,79.0,72.6,66.7,100,90,70,30.18,30.04,4,0,5,0.00
2013-7-20,88.5,73.7,66.3,79.6,71.8,66.3,100,94,69,30.10,29.99,2,0,3,0.17
2013-7-21,88.5,73.5,66.7,79.5,71.6,66.7,100,94,71,30.06,30.00,6,0,6,0.87
2013-7-22,85.6,74.1,66.9,78.0,71.9,66.9,100,93,76,30.05,29.89,6,0,7,0.33
2013-7-23,86.1,73.7,63.1,77.2,70.3,63.1,100,90,67,29.95,29.85,5,0,6,0.33
2013-7-24,86.7,73.7,64.4,77.4,70.4,59.2,100,90,48,29.92,29.84,6,0,6,0.00
2013-7-25,86.1,72.5,63.1,76.9,69.0,62.5,100,90,68,30.07,29.90,6,0,8,0.00
2013-7-26,85.2,71.6,60.9,75.8,68.1,60.9,100,90,71,30.13,30.05,5,0,6,0.20
2013-7-27,84.0,72.8,66.0,78.2,70.7,66.0,100,93,79,30.08,29.94,5,0,5,2.20
2013-7-28,86.3,72.6,63.1,77.4,69.4,63.1,100,90,73,30.06,29.95,4,0,4,0.00
2013-7-29,85.2,70.4,59.9,74.4,65.9,59.9,100,87,66,30.21,30.06,2,0,2,0.00
2013-7-30,85.6,70.9,58.1,76.4,67.0,57.8,100,88,71,30.25,30.17,7,0,7,0.00
2013-7-31,77.7,70.9,66.9,74.7,69.7,66.9,100,96,87,30.20,30.01,3,0,4,0.20
2013-8-1,85.2,72.6,64.7,77.9,70.0,31.3,100,92,25,30.03,29.94,6,0,6,0.00
2013-8-2,87.0,72.8,62.2,76.6,69.4,62.2,100,90,69,30.09,29.98,0,0,0,0.00
2013-8-3,86.5,73.8,63.6,76.9,69.8,63.6,100,88,67,30.08,30.02,0,0,0,0.00
2013-8-4,85.4,72.3,64.0,77.6,68.2,62.7,100,88,70,30.09,30.01,0,0,0,0.00
2013-8-5,85.8,72.1,61.1,75.5,68.1,60.9,100,88,70,30.11,30.01,0,0,0,0.00
2013-8-6,85.4,73.8,67.2,77.8,71.2,66.9,100,92,72,30.09,29.99,0,0,0,0.10
2013-8-7,77.5,71.0,68.1,76.3,70.9,68.1,100,99,94,30.11,30.05,0,0,0,1.57
2013-8-8,86.7,73.9,67.1,79.8,72.1,67.1,100,94,78,30.10,30.05,0,0,0,0.00
2013-8-9,89.4,74.9,66.3,80.6,72.5,66.3,100,93,71,30.13,30.06,0,0,0,0.00
2013-8-10,87.6,73.1,66.3,81.2,71.8,66.3,100,96,76,30.18,30.10,0,0,0,1.26
2013-8-11,87.4,72.7,66.7,80.0,71.5,66.7,100,96,77,30.19,30.11,0,0,0,0.37
2013-8-12,88.8,73.3,66.7,81.3,71.5,66.7,100,95,74,30.15,30.03,5,0,5,0.37
2013-8-13,84.0,72.3,66.3,80.1,71.1,66.3,100,96,82,30.03,29.88,0,0,2,0.06
2013-8-14,80.7,69.7,61.8,72.6,66.1,61.8,100,89,68,30.10,29.94,8,0,8,0.00
2013-8-15,70.8,64.1,57.0,63.7,60.7,56.9,100,89,76,30.17,30.08,0,0,0,0.00
2013-8-16,73.5,63.6,55.9,65.9,60.6,24.1,100,91,25,30.18,30.10,0,0,0,0.00
2013-8-17,72.1,63.2,58.8,65.9,61.5,58.2,100,95,81,30.19,30.14,0,0,0,0.16
2013-8-18,78.6,67.7,61.5,73.8,66.5,61.5,100,96,84,30.23,30.14,0,0,0,0.12
2013-8-19,77.7,68.3,64.2,73.5,67.6,64.2,100,98,86,30.22,30.12,0,0,0,1.00
2013-8-20,80.4,69.9,62.9,75.3,68.5,62.9,100,96,82,30.22,30.14,0,0,0,0.00
2013-8-21,78.0,69.9,64.7,74.7,69.2,64.7,100,98,89,30.27,30.15,0,0,0,0.14
2013-8-22,86.1,72.2,64.0,78.1,69.9,33.2,102,93,25,30.21,30.08,0,0,0,0.19
2013-8-23,86.3,71.9,61.5,77.8,69.0,61.5,100,91,72,30.12,30.02,0,0,0,0.00
2013-8-24,80.7,69.2,58.4,70.9,65.1,57.8,100,88,68,30.32,30.12,0,0,0,0.00
2013-8-25,81.1,64.6,53.6,68.3,60.6,53.6,100,88,64,30.39,30.29,0,0,0,0.00
2013-8-26,82.0,66.6,54.6,71.8,63.0,27.8,100,89,25,30.35,30.16,0,0,0,0.00
2013-8-27,85.8,69.8,57.0,76.3,66.6,57.0,100,90,71,30.18,30.06,0,0,0,0.00
2013-8-28,87.9,73.8,63.3,79.1,70.6,63.3,100,91,70,30.10,30.00,0,0,0,0.00
2013-8-29,88.3,75.2,66.0,79.8,72.0,66.0,100,91,73,30.04,29.97,0,0,0,0.00
2013-8-30,81.8,72.7,69.2,76.6,71.3,69.1,100,96,83,30.10,29.99,0,0,0,0.04
2013-8-31,88.7,72.6,64.5,79.8,70.7,64.5,100,95,74,30.02,29.94,0,0,0,0.39
2013-9-1,89.4,74.1,65.6,80.7,71.4,65.6,100,92,74,29.97,29.86,0,0,0,0.02
2013-9-2,86.5,73.4,64.9,78.3,70.7,64.9,100,92,73,29.98,29.88,0,0,0,0.00
2013-9-3,83.1,70.2,62.4,75.0,67.4,62.4,100,92,72,30.04,29.89,0,0,0,0.19
2013-9-4,84.0,70.2,61.1,76.0,67.4,61.1,100,92,73,30.15,30.03,0,0,0,0.00
2013-9-5,85.8,69.9,60.9,74.1,65.1,60.9,100,87,54,30.17,30.11,0,0,0,0.00
2013-9-6,81.6,67.3,56.6,71.4,63.5,56.6,100,89,67,30.22,30.11,0,0,22,0.00
2013-9-7,82.2,68.1,58.1,73.1,64.9,58.1,100,91,69,30.16,30.04,0,0,0,0.00
2013-9-8,85.2,70.0,59.7,76.1,66.9,59.7,100,91,73,30.06,29.99,0,0,0,0.00
2013-9-9,86.1,71.0,60.6,76.4,67.7,60.6,100,90,69,30.18,30.06,0,0,0,0.00
2013-9-10,88.8,71.9,62.2,78.3,68.2,62.2,100,89,66,30.28,30.18,0,0,0,0.00
2013-9-11,86.1,71.3,61.7,77.1,68.9,61.7,100,93,74,30.27,30.14,0,0,0,0.02
2013-9-12,86.5,71.8,63.1,77.4,69.1,63.1,100,92,73,30.15,29.93,0,0,0,0.00
2013-9-13,80.7,68.0,55.2,70.7,62.9,26.6,100,85,25,29.95,29.86,6,0,10,0.00
2013-9-14,75.3,60.6,50.1,63.1,55.7,49.6,100,85,63,30.13,29.95,6,0,6,0.00
2013-9-15,76.6,62.5,50.5,68.5,59.4,50.2,100,91,73,30.22,30.13,4,0,6,0.00
2013-9-16,82.9,66.8,55.0,71.7,62.7,55.0,100,88,67,30.18,30.10,1,0,2,0.00
2013-9-17,71.7,64.7,60.0,63.4,59.9,57.4,96,85,69,30.30,30.18,6,0,6,0.00
2013-9-18,73.0,62.4,55.4,64.6,59.3,25.8,98,90,25,30.28,30.17,3,0,3,0.00
2013-9-19,82.9,66.7,57.0,73.6,64.3,57.0,100,93,69,30.20,30.10,3,0,6,0.06
2013-9-20,85.2,69.2,60.4,74.9,66.1,28.3,100,91,25,30.12,29.97,0,0,0,0.00
2013-9-21,70.5,62.9,58.6,69.6,62.6,58.6,100,99,95,29.97,29.75,0,0,0,1.14
2013-9-22,74.4,62.1,53.0,64.0,58.5,53.0,100,89,66,29.95,29.78,3,0,4,0.00
2013-9-23,74.1,62.4,53.4,64.9,59.3,53.4,100,90,72,30.07,29.94,5,0,5,0.00
2013-9-24,77.5,64.2,53.4,69.0,61.5,53.4,100,92,74,30.08,29.96,2,0,6,0.00
2013-9-25,64.2,61.1,58.8,63.7,60.9,58.8,100,99,97,29.96,29.89,0,0,0,1.08
2013-9-26,71.2,62.5,53.7,66.1,60.6,53.4,100,94,80,30.06,29.90,2,0,5,0.02
2013-9-27,75.5,61.4,52.5,67.0,58.7,52.5,100,91,72,30.18,30.06,3,0,3,0.00
2013-9-28,71.2,61.1,53.9,63.5,58.2,53.9,100,91,75,30.24,30.15,1,0,6,0.00
2013-9-29,73.4,60.7,51.9,63.8,57.5,51.8,100,90,69,30.18,30.04,2,0,3,0.00
2013-9-30,73.2,61.1,51.8,66.1,58.4,18.7,100,92,25,30.11,30.01,1,0,1,0.00
2013-10-1,78.6,62.4,50.7,68.6,59.5,50.7,100,91,69,30.17,30.07,1,0,4,0.00
2013-10-2,78.8,64.6,54.1,69.6,61.2,54.1,100,90,67,30.19,30.10,3,0,3,0.00
2013-10-3,81.1,65.2,55.2,72.3,62.4,55.2,100,91,72,30.17,30.09,2,0,5,0.00
2013-10-4,83.1,65.5,54.6,71.6,62.4,54.6,100,91,66,30.19,30.11,1,0,4,0.00
2013-10-5,82.9,66.9,55.9,73.0,63.5,55.9,100,90,67,30.18,30.07,3,0,10,0.00
2013-10-6,80.0,65.7,55.2,72.5,62.7,55.2,100,91,72,30.09,29.92,7,0,7,0.00
2013-10-7,66.7,61.2,50.1,64.0,58.9,49.3,100,93,73,30.03,29.85,0,0,0,1.16
2013-10-8,68.1,55.6,47.8,57.3,51.7,47.5,100,88,67,30.20,30.02,0,0,22,0.00
2013-10-9,69.6,54.3,42.4,56.0,49.4,42.4,100,85,58,30.21,30.11,0,0,0,0.00
2013-10-10,73.9,57.2,43.5,61.8,52.8,43.2,100,87,64,30.14,30.03,0,0,0,0.00
2013-10-11,75.5,59.9,48.0,64.1,55.2,48.0,100,86,62,30.05,29.97,0,0,0,0.00
2013-10-12,76.8,62.1,49.6,67.1,58.4,49.6,100,89,69,30.11,30.01,0,0,0,0.00
2013-10-13,72.5,64.1,59.1,68.0,62.7,59.1,100,95,84,30.22,30.11,0,0,0,0.10
2013-10-14,69.9,62.1,57.3,65.5,60.8,56.7,100,96,84,30.23,30.16,0,0,0,0.00
2013-10-15,66.9,59.5,53.4,62.2,58.0,53.4,100,95,83,30.19,30.07,0,0,0,0.00
2013-10-16,70.8,58.9,49.2,64.2,56.9,49.2,100,94,78,30.09,29.97,0,0,0,0.00
2013-10-17,71.7,62.6,57.0,68.6,61.8,56.4,100,97,88,29.99,29.86,0,0,0,0.08
2013-10-18,70.8,57.0,46.5,62.6,54.0,46.5,100,91,73,30.03,29.93,0,0,0,0.00
2013-10-19,67.2,56.7,45.5,60.9,54.6,45.0,100,93,74,29.97,29.86,0,0,0,0.00
2013-10-20,65.4,49.8,-14.0,54.6,46.1,-18.6,100,88,66,30.08,29.95,0,0,0,0.00
2013-10-21,69.0,49.9,35.7,59.1,47.2,35.7,100,91,70,30.13,29.99,0,0,0,0.00
2013-10-22,70.1,56.9,47.8,60.4,53.5,46.6,100,89,68,30.01,29.82,0,0,0,0.00
2013-10-23,61.7,47.4,36.8,51.7,41.5,31.5,100,82,57,30.00,29.76,0,0,0,0.00
2013-10-24,58.8,43.5,31.2,45.8,37.1,29.4,95,79,60,30.12,30.00,0,0,0,0.00
2013-10-25,49.6,38.4,28.2,36.7,31.6,25.6,91,78,58,30.30,30.12,0,0,0,0.00
2013-10-26,57.3,38.5,23.5,44.0,33.2,22.5,97,83,60,30.29,30.04,0,0,0,0.00
2013-10-27,68.1,51.7,38.1,55.5,46.4,36.8,98,83,62,30.11,30.03,0,0,0,0.00
2013-10-28,68.1,53.8,43.3,61.1,51.9,42.7,100,94,76,30.24,30.09,0,0,0,0.04
2013-10-29,68.5,55.9,47.6,59.8,52.7,26.9,100,90,41,30.32,30.21,0,0,0,0.00
2013-10-30,76.2,59.2,48.9,65.4,55.7,48.9,100,89,66,30.27,30.15,0,0,0,0.00
2013-10-31,67.6,59.0,49.6,62.2,57.0,49.5,100,93,78,30.18,29.89,0,0,0,0.04
2013-11-1,74.1,63.5,49.1,65.5,60.4,48.0,100,91,68,29.89,29.67,0,0,50,0.08
2013-11-2,65.4,50.6,41.5,53.0,44.8,13.8,99,82,30,29.98,29.77,0,0,0,0.00
2013-11-3,58.6,44.7,33.0,45.2,38.7,31.5,97,81,54,30.31,29.97,0,0,0,0.00
2013-11-4,55.5,40.4,28.7,42.3,34.7,28.2,100,82,59,30.44,30.31,0,0,0,0.00
2013-11-5,57.9,42.0,30.0,44.6,36.9,29.0,98,84,57,30.47,30.35,0,0,0,0.00
2013-11-6,67.4,53.9,44.4,59.1,50.9,42.2,100,90,73,30.37,30.12,0,0,0,0.02
2013-11-7,62.4,49.7,39.0,59.4,46.2,34.0,100,88,69,30.13,30.00,0,0,0,0.04
2013-11-8,54.1,40.8,29.3,36.1,30.7,25.5,86,69,42,30.26,30.13,0,0,0,0.00
2013-11-9,59.5,41.2,24.6,43.2,33.7,23.1,96,76,52,30.30,30.16,0,0,0,0.00
2013-11-10,66.7,49.7,39.0,48.5,38.3,31.8,84,66,42,30.23,30.13,0,0,0,0.00
2013-11-11,59.7,43.0,31.6,41.6,33.7,27.3,88,71,50,30.29,30.12,0,0,0,0.00
2013-11-12,56.1,38.5,24.0,44.1,31.7,16.6,91,77,61,30.36,30.05,0,0,0,0.00
2013-11-13,44.6,30.5,21.5,27.4,20.7,16.1,81,68,48,30.43,30.35,0,0,0,0.00
2013-11-14,56.8,31.9,19.7,35.9,23.3,17.0,90,73,43,30.38,30.24,0,0,0,0.00
2013-11-15,54.6,41.3,24.9,50.2,37.7,20.7,98,87,72,30.26,30.14,0,0,0,0.08
2013-11-16,63.1,53.0,47.1,59.2,51.9,46.6,100,96,85,30.23,30.13,0,0,0,0.02
2013-11-17,61.5,55.5,52.3,60.1,55.3,52.0,100,99,94,30.18,29.89,0,0,0,0.43
2013-11-18,65.1,54.5,43.5,58.8,47.9,2.9,100,80,13,30.02,29.85,0,0,0,0.02
2013-11-19,53.4,42.9,35.7,37.5,33.6,29.7,87,70,53,30.19,30.00,0,0,0,0.00
2013-11-20,49.2,37.9,27.3,37.3,31.5,25.0,94,78,60,30.36,30.18,0,0,0,0.00
2013-11-21,50.0,45.1,38.4,47.1,41.7,34.4,99,88,79,30.41,30.31,0,0,0,0.16
2013-11-22,71.2,56.5,46.7,65.1,55.1,46.4,100,95,80,30.34,30.11,0,0,0,0.04
2013-11-23,56.3,47.6,32.7,55.8,44.0,25.7,100,87,73,30.16,30.08,0,0,0,0.00
2013-11-24,36.8,27.8,20.4,25.7,18.0,13.4,79,67,52,30.38,30.15,7,0,7,0.00
2013-11-25,42.8,29.2,17.7,25.9,19.6,13.1,90,69,48,30.40,30.21,5,0,5,0.00
2013-11-26,43.7,37.8,30.9,43.7,36.4,24.5,100,95,74,30.22,29.63,0,0,0,3.04
2013-11-27,43.7,31.8,23.0,43.7,29.1,18.1,100,90,77,30.11,29.59,8,1,11,0.04
2013-11-28,47.4,29.2,18.8,32.5,23.0,15.8,93,79,51,30.36,30.11,6,0,54,0.04
2013-11-29,52.7,31.1,22.8,37.1,26.5,21.3,96,84,54,30.49,30.36,2,0,4,0.02
2013-11-30,44.7,30.9,21.7,33.8,26.1,20.5,97,83,62,30.50,30.28,3,0,3,0.00
2013-12-1,58.1,36.7,24.4,46.4,32.0,22.9,96,84,63,30.28,29.98,4,0,5,0.00
2013-12-2,58.6,42.1,27.6,48.1,38.2,26.6,98,87,68,29.98,29.77,4,0,5,0.00
2013-12-3,60.4,50.9,39.3,53.7,48.9,38.5,99,93,78,29.93,29.85,1,0,2,0.00
2013-12-4,65.6,54.5,49.2,60.5,53.4,49.2,100,96,83,30.05,29.91,7,0,7,0.04
2013-12-5,71.6,59.8,50.5,67.5,58.8,50.5,100,97,84,30.08,29.98,6,0,7,0.45
2013-12-6,70.7,65.1,53.2,67.0,63.5,52.7,100,95,87,30.05,29.95,11,2,11,0.71
2013-12-7,54.1,47.0,39.7,52.5,44.8,39.2,100,92,80,30.30,30.01,6,1,6,0.00
2013-12-8,43.5,37.5,33.6,41.9,37.2,33.6,100,99,94,30.30,30.16,7,0,7,0.33
2013-12-9,56.8,44.7,33.6,56.8,44.7,33.6,100,100,99,30.16,30.00,4,0,4,0.96
2013-12-10,49.1,40.7,26.6,49.1,38.4,24.6,100,92,75,30.25,29.87,9,1,11,0.28
2013-12-11,49.2,32.9,22.8,36.3,27.9,21.3,96,83,55,30.34,30.21,6,0,6,0.04
2013-12-12,41.3,31.4,23.7,29.4,23.5,18.4,88,73,53,30.33,30.22,8,1,9,0.04
2013-12-13,48.9,33.1,19.9,33.3,25.4,16.4,89,74,53,30.28,30.16,4,0,4,0.04
2013-12-14,42.6,38.2,34.8,41.8,36.3,30.2,100,93,81,30.19,29.74,3,0,3,0.86
2013-12-15,42.9,36.5,26.7,41.7,34.5,25.2,100,92,80,30.06,29.72,13,1,13,0.04
2013-12-16,54.6,35.9,24.0,43.1,31.5,23.5,100,85,58,30.12,30.03,5,0,5,0.04
2013-12-17,60.4,41.5,25.5,45.4,33.9,24.8,99,77,51,30.09,29.91,16,1,16,0.00
2013-12-18,46.9,34.3,25.5,29.5,24.8,20.8,83,69,45,30.23,30.03,8,0,61,0.04
2013-12-19,61.5,38.1,22.4,44.2,30.4,19.9,93,76,48,30.25,30.14,5,0,5,0.00
2013-12-20,63.1,49.1,35.7,51.4,40.5,31.2,94,74,45,30.17,30.08,9,1,9,0.00
2013-12-21,63.8,57.4,50.1,63.0,56.6,48.4,100,97,91,30.10,29.98,7,0,10,0.41
2013-12-22,64.0,59.0,55.0,63.1,58.7,21.4,100,99,25,30.05,29.93,13,1,13,2.26
2013-12-23,55.5,48.0,33.4,55.5,46.8,32.1,100,96,87,30.16,29.98,6,1,6,0.22
2013-12-24,40.1,30.7,21.9,33.4,26.4,17.7,96,84,70,30.32,30.13,7,1,11,0.00
2013-12-25,37.7,24.7,15.8,25.5,19.2,14.4,96,81,59,30.39,30.25,5,0,5,0.00
2013-12-26,49.2,31.3,18.6,36.7,25.6,16.4,93,81,58,30.28,30.17,5,0,5,0.00
2013-12-27,50.7,31.6,21.3,38.1,26.9,20.3,98,84,57,30.37,30.27,6,0,6,0.00
2013-12-28,46.0,33.2,21.0,39.1,31.2,20.0,99,93,75,30.34,30.04,2,0,2,0.22
2013-12-29,55.7,42.4,37.2,52.1,41.2,37.2,100,96,83,30.04,29.78,6,1,6,0.88
2013-12-30,48.5,39.7,34.3,44.9,37.7,32.8,99,93,83,30.09,29.93,6,0,6,0.00
2013-12-31,44.4,33.9,26.2,34.9,28.8,22.8,96,82,62,30.29,30.07,9,1,9,0.00
2014-1-1,48.3,33.4,24.0,37.5,28.8,22.5,96,84,64,30.29,30.07,7,0,9,0.00
2014-1-2,48.0,35.4,21.5,47.2,33.7,16.0,98,94,78,30.07,29.63,15,1,15,0.06